sensor_id;sensor_type;location;lat;lon;timestamp;P1;durP1;ratioP1;P2;durP2;ratioP2
57800;SDS011;43627;42.728;23.256;2022-08-11T00:00:59;8.52;;;5.63;;
57800;SDS011;43627;42.728;23.256;2022-08-11T00:06:09;6.70;;;5.97;;
57800;SDS011;43627;42.728;23.256;2022-08-11T00:08:36;8.27;;;5.47;;
57800;SDS011;43627;42.728;23.256;2022-08-11T00:11:05;6.90;;;5.80;;
57800;SDS011;43627;42.728;23.256;2022-08-11T00:13:35;9.13;;;5.35;;
57800;SDS011;43627;42.728;23.256;2022-08-11T00:16:15;8.10;;;5.53;;
57800;SDS011;43627;42.728;23.256;2022-08-11T00:18:44;8.48;;;6.50;;
57800;SDS011;43627;42.728;23.256;2022-08-11T00:21:16;6.63;;;5.75;;
57800;SDS011;43627;42.728;23.256;2022-08-11T00:24:06;7.07;;;5.00;;
57800;SDS011;43627;42.728;23.256;2022-08-11T00:26:33;7.25;;;5.85;;
57800;SDS011;43627;42.728;23.256;2022-08-11T00:29:08;8.88;;;5.97;;
57800;SDS011;43627;42.728;23.256;2022-08-11T00:31:36;6.47;;;5.22;;
57800;SDS011;43627;42.728;23.256;2022-08-11T00:34:07;10.13;;;5.18;;
57800;SDS011;43627;42.728;23.256;2022-08-11T00:39:41;6.22;;;5.32;;
57800;SDS011;43627;42.728;23.256;2022-08-11T00:47:33;9.82;;;5.78;;
57800;SDS011;43627;42.728;23.256;2022-08-11T00:53:14;7.63;;;6.10;;
57800;SDS011;43627;42.728;23.256;2022-08-11T01:05:03;7.35;;;5.65;;
57800;SDS011;43627;42.728;23.256;2022-08-11T01:30:56;9.03;;;7.20;;
57800;SDS011;43627;42.728;23.256;2022-08-11T01:59:36;9.85;;;7.68;;
57800;SDS011;43627;42.728;23.256;2022-08-11T02:05:19;8.65;;;7.10;;
57800;SDS011;43627;42.728;23.256;2022-08-11T02:10:47;9.35;;;7.68;;
57800;SDS011;43627;42.728;23.256;2022-08-11T02:13:46;13.25;;;8.48;;
57800;SDS011;43627;42.728;23.256;2022-08-11T02:19:11;12.85;;;7.93;;
57800;SDS011;43627;42.728;23.256;2022-08-11T02:25:06;10.97;;;8.37;;
57800;SDS011;43627;42.728;23.256;2022-08-11T02:27:44;10.95;;;8.82;;
57800;SDS011;43627;42.728;23.256;2022-08-11T02:30:23;12.90;;;8.77;;
57800;SDS011;43627;42.728;23.256;2022-08-11T02:33:15;13.45;;;8.68;;
57800;SDS011;43627;42.728;23.256;2022-08-11T02:35:57;13.40;;;8.15;;
57800;SDS011;43627;42.728;23.256;2022-08-11T02:38:48;16.15;;;11.90;;
57800;SDS011;43627;42.728;23.256;2022-08-11T02:44:33;15.50;;;9.48;;
57800;SDS011;43627;42.728;23.256;2022-08-11T02:50:35;11.57;;;9.00;;
57800;SDS011;43627;42.728;23.256;2022-08-11T02:53:13;11.95;;;9.18;;
57800;SDS011;43627;42.728;23.256;2022-08-11T02:55:54;13.50;;;9.40;;
57800;SDS011;43627;42.728;23.256;2022-08-11T03:01:42;11.15;;;9.60;;
57800;SDS011;43627;42.728;23.256;2022-08-11T03:04:17;11.65;;;9.32;;
57800;SDS011;43627;42.728;23.256;2022-08-11T03:07:07;10.55;;;9.18;;
57800;SDS011;43627;42.728;23.256;2022-08-11T03:09:59;13.45;;;8.82;;
57800;SDS011;43627;42.728;23.256;2022-08-11T03:12:52;12.75;;;9.30;;
57800;SDS011;43627;42.728;23.256;2022-08-11T03:15:56;10.02;;;8.75;;
57800;SDS011;43627;42.728;23.256;2022-08-11T03:36:04;16.33;;;11.80;;
57800;SDS011;43627;42.728;23.256;2022-08-11T03:41:43;18.00;;;12.73;;
57800;SDS011;43627;42.728;23.256;2022-08-11T03:56:12;10.60;;;9.25;;
57800;SDS011;43627;42.728;23.256;2022-08-11T03:59:37;14.95;;;8.82;;
57800;SDS011;43627;42.728;23.256;2022-08-11T04:02:20;23.73;;;9.73;;
57800;SDS011;43627;42.728;23.256;2022-08-11T04:20:01;13.85;;;8.45;;
57800;SDS011;43627;42.728;23.256;2022-08-11T04:52:10;14.35;;;7.75;;
57800;SDS011;43627;42.728;23.256;2022-08-11T05:13:44;11.35;;;5.70;;
57800;SDS011;43627;42.728;23.256;2022-08-11T05:16:51;9.00;;;6.63;;
57800;SDS011;43627;42.728;23.256;2022-08-11T05:19:38;6.57;;;5.55;;
57800;SDS011;43627;42.728;23.256;2022-08-11T05:22:31;9.90;;;5.70;;
57800;SDS011;43627;42.728;23.256;2022-08-11T05:25:24;12.23;;;6.00;;
57800;SDS011;43627;42.728;23.256;2022-08-11T05:28:49;11.35;;;5.75;;
57800;SDS011;43627;42.728;23.256;2022-08-11T05:34:45;9.60;;;5.60;;
57800;SDS011;43627;42.728;23.256;2022-08-11T05:37:19;7.03;;;6.18;;
57800;SDS011;43627;42.728;23.256;2022-08-11T05:40:00;8.98;;;6.82;;
57800;SDS011;43627;42.728;23.256;2022-08-11T05:42:50;14.65;;;7.28;;
57800;SDS011;43627;42.728;23.256;2022-08-11T05:45:42;9.85;;;6.97;;
57800;SDS011;43627;42.728;23.256;2022-08-11T05:48:33;10.93;;;6.47;;
57800;SDS011;43627;42.728;23.256;2022-08-11T05:51:20;11.65;;;6.85;;
57800;SDS011;43627;42.728;23.256;2022-08-11T05:54:20;9.30;;;7.00;;
57800;SDS011;43627;42.728;23.256;2022-08-11T05:57:18;11.93;;;7.22;;
57800;SDS011;43627;42.728;23.256;2022-08-11T06:00:07;7.80;;;7.00;;
57800;SDS011;43627;42.728;23.256;2022-08-11T06:02:48;9.27;;;6.95;;
57800;SDS011;43627;42.728;23.256;2022-08-11T06:05:20;8.00;;;7.20;;
57800;SDS011;43627;42.728;23.256;2022-08-11T06:07:51;7.95;;;6.43;;
57800;SDS011;43627;42.728;23.256;2022-08-11T06:10:29;10.48;;;6.95;;
57800;SDS011;43627;42.728;23.256;2022-08-11T06:12:58;11.57;;;7.95;;
57800;SDS011;43627;42.728;23.256;2022-08-11T06:15:27;11.10;;;7.43;;
57800;SDS011;43627;42.728;23.256;2022-08-11T06:17:56;11.98;;;6.20;;
57800;SDS011;43627;42.728;23.256;2022-08-11T06:20:26;7.50;;;6.45;;
57800;SDS011;43627;42.728;23.256;2022-08-11T06:22:58;7.47;;;6.57;;
57800;SDS011;43627;42.728;23.256;2022-08-11T06:25:30;7.72;;;6.15;;
57800;SDS011;43627;42.728;23.256;2022-08-11T06:27:58;8.75;;;7.15;;
57800;SDS011;43627;42.728;23.256;2022-08-11T06:30:33;9.00;;;6.45;;
57800;SDS011;43627;42.728;23.256;2022-08-11T06:33:08;8.20;;;6.93;;
57800;SDS011;43627;42.728;23.256;2022-08-11T06:35:50;8.05;;;6.70;;
57800;SDS011;43627;42.728;23.256;2022-08-11T06:38:38;11.65;;;7.47;;
57800;SDS011;43627;42.728;23.256;2022-08-11T06:41:33;7.35;;;6.18;;
57800;SDS011;43627;42.728;23.256;2022-08-11T06:46:41;8.63;;;6.65;;
57800;SDS011;43627;42.728;23.256;2022-08-11T06:49:20;7.35;;;6.30;;
57800;SDS011;43627;42.728;23.256;2022-08-11T06:52:16;7.45;;;5.53;;
57800;SDS011;43627;42.728;23.256;2022-08-11T06:55:14;9.82;;;5.60;;
57800;SDS011;43627;42.728;23.256;2022-08-11T06:58:25;10.07;;;5.97;;
57800;SDS011;43627;42.728;23.256;2022-08-11T07:01:13;7.18;;;5.55;;
57800;SDS011;43627;42.728;23.256;2022-08-11T07:03:47;7.63;;;5.72;;
57800;SDS011;43627;42.728;23.256;2022-08-11T07:06:49;10.63;;;7.82;;
57800;SDS011;43627;42.728;23.256;2022-08-11T07:12:37;9.38;;;7.00;;
57800;SDS011;43627;42.728;23.256;2022-08-11T07:15:28;8.90;;;5.53;;
57800;SDS011;43627;42.728;23.256;2022-08-11T07:18:28;7.93;;;5.05;;
57800;SDS011;43627;42.728;23.256;2022-08-11T07:21:31;6.97;;;5.03;;
57800;SDS011;43627;42.728;23.256;2022-08-11T07:24:31;7.05;;;5.28;;
57800;SDS011;43627;42.728;23.256;2022-08-11T07:27:29;7.25;;;5.53;;
57800;SDS011;43627;42.728;23.256;2022-08-11T07:30:38;5.82;;;4.80;;
57800;SDS011;43627;42.728;23.256;2022-08-11T07:33:06;8.70;;;4.50;;
57800;SDS011;43627;42.728;23.256;2022-08-11T07:35:47;6.20;;;4.88;;
57800;SDS011;43627;42.728;23.256;2022-08-11T07:38:22;5.97;;;5.15;;
57800;SDS011;43627;42.728;23.256;2022-08-11T07:41:11;5.75;;;4.65;;
57800;SDS011;43627;42.728;23.256;2022-08-11T07:43:40;6.25;;;4.78;;
57800;SDS011;43627;42.728;23.256;2022-08-11T07:46:08;7.03;;;4.97;;
57800;SDS011;43627;42.728;23.256;2022-08-11T07:48:55;6.63;;;4.25;;
57800;SDS011;43627;42.728;23.256;2022-08-11T07:51:41;5.63;;;4.82;;
57800;SDS011;43627;42.728;23.256;2022-08-11T07:54:28;7.60;;;4.45;;
57800;SDS011;43627;42.728;23.256;2022-08-11T07:56:58;6.82;;;4.55;;
57800;SDS011;43627;42.728;23.256;2022-08-11T07:59:45;5.93;;;4.50;;
57800;SDS011;43627;42.728;23.256;2022-08-11T08:02:30;9.70;;;4.88;;
57800;SDS011;43627;42.728;23.256;2022-08-11T08:05:16;8.43;;;5.05;;
57800;SDS011;43627;42.728;23.256;2022-08-11T08:08:03;9.57;;;4.97;;
57800;SDS011;43627;42.728;23.256;2022-08-11T08:10:51;7.50;;;4.55;;
57800;SDS011;43627;42.728;23.256;2022-08-11T08:13:40;5.15;;;4.25;;
57800;SDS011;43627;42.728;23.256;2022-08-11T08:16:27;5.13;;;4.20;;
57800;SDS011;43627;42.728;23.256;2022-08-11T08:19:15;5.53;;;3.70;;
57800;SDS011;43627;42.728;23.256;2022-08-11T08:21:44;10.27;;;5.18;;
57800;SDS011;43627;42.728;23.256;2022-08-11T08:24:12;5.55;;;4.20;;
57800;SDS011;43627;42.728;23.256;2022-08-11T08:26:43;8.35;;;6.10;;
57800;SDS011;43627;42.728;23.256;2022-08-11T08:29:31;7.75;;;4.43;;
57800;SDS011;43627;42.728;23.256;2022-08-11T08:32:20;5.82;;;4.20;;
57800;SDS011;43627;42.728;23.256;2022-08-11T08:34:51;5.88;;;4.13;;
57800;SDS011;43627;42.728;23.256;2022-08-11T08:37:21;6.05;;;4.70;;
57800;SDS011;43627;42.728;23.256;2022-08-11T08:40:09;6.95;;;4.75;;
57800;SDS011;43627;42.728;23.256;2022-08-11T08:42:40;8.00;;;4.55;;
57800;SDS011;43627;42.728;23.256;2022-08-11T08:45:12;7.68;;;4.90;;
57800;SDS011;43627;42.728;23.256;2022-08-11T08:48:03;6.97;;;5.25;;
57800;SDS011;43627;42.728;23.256;2022-08-11T08:50:38;5.90;;;5.20;;
57800;SDS011;43627;42.728;23.256;2022-08-11T08:53:29;8.65;;;5.18;;
57800;SDS011;43627;42.728;23.256;2022-08-11T08:55:59;9.07;;;4.60;;
57800;SDS011;43627;42.728;23.256;2022-08-11T08:58:27;5.43;;;4.78;;
57800;SDS011;43627;42.728;23.256;2022-08-11T09:00:56;8.77;;;4.78;;
57800;SDS011;43627;42.728;23.256;2022-08-11T09:03:25;6.93;;;4.57;;
57800;SDS011;43627;42.728;23.256;2022-08-11T09:06:14;4.75;;;4.18;;
57800;SDS011;43627;42.728;23.256;2022-08-11T09:08:42;5.30;;;4.38;;
57800;SDS011;43627;42.728;23.256;2022-08-11T09:11:10;6.78;;;3.90;;
57800;SDS011;43627;42.728;23.256;2022-08-11T09:13:57;4.95;;;4.32;;
57800;SDS011;43627;42.728;23.256;2022-08-11T09:16:31;6.30;;;5.00;;
57800;SDS011;43627;42.728;23.256;2022-08-11T09:18:59;5.70;;;4.78;;
57800;SDS011;43627;42.728;23.256;2022-08-11T09:21:26;5.57;;;5.05;;
57800;SDS011;43627;42.728;23.256;2022-08-11T09:24:14;6.53;;;4.75;;
57800;SDS011;43627;42.728;23.256;2022-08-11T09:27:03;8.90;;;4.93;;
57800;SDS011;43627;42.728;23.256;2022-08-11T09:29:31;7.47;;;4.80;;
57800;SDS011;43627;42.728;23.256;2022-08-11T09:31:59;4.75;;;4.28;;
57800;SDS011;43627;42.728;23.256;2022-08-11T09:34:26;7.50;;;5.18;;
57800;SDS011;43627;42.728;23.256;2022-08-11T09:36:54;11.23;;;5.40;;
57800;SDS011;43627;42.728;23.256;2022-08-11T09:40:00;10.02;;;5.90;;
57800;SDS011;43627;42.728;23.256;2022-08-11T09:42:52;8.40;;;5.88;;
57800;SDS011;43627;42.728;23.256;2022-08-11T09:45:38;6.93;;;5.22;;
57800;SDS011;43627;42.728;23.256;2022-08-11T09:48:05;10.60;;;5.45;;
57800;SDS011;43627;42.728;23.256;2022-08-11T09:50:33;7.60;;;4.82;;
57800;SDS011;43627;42.728;23.256;2022-08-11T09:53:00;5.80;;;4.63;;
57800;SDS011;43627;42.728;23.256;2022-08-11T09:55:51;8.75;;;5.60;;
57800;SDS011;43627;42.728;23.256;2022-08-11T09:58:18;6.68;;;4.85;;
57800;SDS011;43627;42.728;23.256;2022-08-11T10:01:08;8.50;;;4.75;;
57800;SDS011;43627;42.728;23.256;2022-08-11T10:03:57;7.38;;;4.80;;
57800;SDS011;43627;42.728;23.256;2022-08-11T10:06:34;5.47;;;4.43;;
57800;SDS011;43627;42.728;23.256;2022-08-11T10:09:23;7.35;;;4.32;;
57800;SDS011;43627;42.728;23.256;2022-08-11T10:11:51;5.90;;;4.45;;
57800;SDS011;43627;42.728;23.256;2022-08-11T10:14:23;6.03;;;4.43;;
57800;SDS011;43627;42.728;23.256;2022-08-11T10:17:11;5.18;;;3.95;;
57800;SDS011;43627;42.728;23.256;2022-08-11T10:19:39;5.88;;;3.97;;
57800;SDS011;43627;42.728;23.256;2022-08-11T10:22:08;6.32;;;4.72;;
57800;SDS011;43627;42.728;23.256;2022-08-11T10:24:58;5.00;;;3.53;;
57800;SDS011;43627;42.728;23.256;2022-08-11T10:27:45;20.98;;;4.88;;
57800;SDS011;43627;42.728;23.256;2022-08-11T10:30:39;5.68;;;4.05;;
57800;SDS011;43627;42.728;23.256;2022-08-11T10:33:26;3.67;;;3.28;;
57800;SDS011;43627;42.728;23.256;2022-08-11T10:38:59;6.85;;;4.15;;
57800;SDS011;43627;42.728;23.256;2022-08-11T10:41:27;7.43;;;3.55;;
57800;SDS011;43627;42.728;23.256;2022-08-11T10:44:41;7.63;;;4.88;;
57800;SDS011;43627;42.728;23.256;2022-08-11T10:47:11;7.75;;;4.43;;
57800;SDS011;43627;42.728;23.256;2022-08-11T10:49:58;5.00;;;4.50;;
57800;SDS011;43627;42.728;23.256;2022-08-11T10:52:48;7.10;;;5.32;;
57800;SDS011;43627;42.728;23.256;2022-08-11T10:55:35;7.13;;;4.03;;
57800;SDS011;43627;42.728;23.256;2022-08-11T10:58:23;6.57;;;5.53;;
57800;SDS011;43627;42.728;23.256;2022-08-11T11:01:10;11.30;;;5.97;;
57800;SDS011;43627;42.728;23.256;2022-08-11T11:03:37;8.13;;;4.82;;
57800;SDS011;43627;42.728;23.256;2022-08-11T11:08:56;6.75;;;5.13;;
57800;SDS011;43627;42.728;23.256;2022-08-11T11:11:32;6.07;;;4.93;;
57800;SDS011;43627;42.728;23.256;2022-08-11T11:14:21;6.45;;;5.00;;
57800;SDS011;43627;42.728;23.256;2022-08-11T11:17:17;6.10;;;4.75;;
57800;SDS011;43627;42.728;23.256;2022-08-11T11:20:16;7.93;;;4.45;;
57800;SDS011;43627;42.728;23.256;2022-08-11T11:23:05;6.22;;;5.28;;
57800;SDS011;43627;42.728;23.256;2022-08-11T11:37:34;5.72;;;4.85;;
57800;SDS011;43627;42.728;23.256;2022-08-11T11:40:13;5.38;;;4.22;;
57800;SDS011;43627;42.728;23.256;2022-08-11T11:42:45;9.02;;;3.90;;
57800;SDS011;43627;42.728;23.256;2022-08-11T11:45:14;5.82;;;4.70;;
57800;SDS011;43627;42.728;23.256;2022-08-11T11:47:50;5.68;;;4.63;;
57800;SDS011;43627;42.728;23.256;2022-08-11T11:50:23;8.40;;;5.45;;
57800;SDS011;43627;42.728;23.256;2022-08-11T11:52:51;10.45;;;8.50;;
57800;SDS011;43627;42.728;23.256;2022-08-11T11:55:22;6.03;;;4.55;;
57800;SDS011;43627;42.728;23.256;2022-08-11T11:57:51;5.75;;;4.28;;
57800;SDS011;43627;42.728;23.256;2022-08-11T12:00:44;4.20;;;3.67;;
57800;SDS011;43627;42.728;23.256;2022-08-11T12:03:30;4.82;;;3.50;;
57800;SDS011;43627;42.728;23.256;2022-08-11T12:05:58;9.73;;;4.80;;
57800;SDS011;43627;42.728;23.256;2022-08-11T12:08:27;8.70;;;3.83;;
57800;SDS011;43627;42.728;23.256;2022-08-11T12:10:54;4.95;;;3.53;;
57800;SDS011;43627;42.728;23.256;2022-08-11T12:13:46;5.25;;;3.58;;
57800;SDS011;43627;42.728;23.256;2022-08-11T12:16:16;4.95;;;3.17;;
57800;SDS011;43627;42.728;23.256;2022-08-11T12:19:05;5.97;;;5.03;;
57800;SDS011;43627;42.728;23.256;2022-08-11T12:21:35;4.45;;;3.35;;
57800;SDS011;43627;42.728;23.256;2022-08-11T12:24:03;8.18;;;3.47;;
57800;SDS011;43627;42.728;23.256;2022-08-11T12:26:54;6.65;;;3.00;;
57800;SDS011;43627;42.728;23.256;2022-08-11T12:29:44;9.65;;;4.75;;
57800;SDS011;43627;42.728;23.256;2022-08-11T12:32:19;4.65;;;3.10;;
57800;SDS011;43627;42.728;23.256;2022-08-11T12:34:48;5.90;;;3.92;;
57800;SDS011;43627;42.728;23.256;2022-08-11T12:37:15;7.07;;;3.80;;
57800;SDS011;43627;42.728;23.256;2022-08-11T12:39:49;10.57;;;4.45;;
57800;SDS011;43627;42.728;23.256;2022-08-11T12:43:00;8.02;;;5.05;;
57800;SDS011;43627;42.728;23.256;2022-08-11T12:46:03;6.22;;;4.50;;
57800;SDS011;43627;42.728;23.256;2022-08-11T12:48:36;6.82;;;4.20;;
57800;SDS011;43627;42.728;23.256;2022-08-11T12:51:33;6.57;;;3.00;;
57800;SDS011;43627;42.728;23.256;2022-08-11T13:00:21;2.55;;;2.30;;
57800;SDS011;43627;42.728;23.256;2022-08-11T13:03:08;5.97;;;2.88;;
57800;SDS011;43627;42.728;23.256;2022-08-11T13:05:56;5.28;;;3.40;;
57800;SDS011;43627;42.728;23.256;2022-08-11T13:08:25;4.03;;;3.25;;
57800;SDS011;43627;42.728;23.256;2022-08-11T13:10:55;7.15;;;3.35;;
57800;SDS011;43627;42.728;23.256;2022-08-11T13:13:43;4.15;;;2.83;;
57800;SDS011;43627;42.728;23.256;2022-08-11T13:16:27;3.50;;;3.20;;
57800;SDS011;43627;42.728;23.256;2022-08-11T13:18:57;6.63;;;3.78;;
57800;SDS011;43627;42.728;23.256;2022-08-11T13:21:26;3.38;;;2.58;;
57800;SDS011;43627;42.728;23.256;2022-08-11T13:23:54;3.75;;;3.00;;
57800;SDS011;43627;42.728;23.256;2022-08-11T13:26:31;4.20;;;2.88;;
57800;SDS011;43627;42.728;23.256;2022-08-11T13:29:19;3.83;;;2.75;;
57800;SDS011;43627;42.728;23.256;2022-08-11T13:31:48;3.95;;;2.78;;
57800;SDS011;43627;42.728;23.256;2022-08-11T13:34:16;5.50;;;3.13;;
57800;SDS011;43627;42.728;23.256;2022-08-11T13:36:45;8.32;;;3.50;;
57800;SDS011;43627;42.728;23.256;2022-08-11T13:39:17;4.22;;;2.50;;
57800;SDS011;43627;42.728;23.256;2022-08-11T13:41:49;4.85;;;2.83;;
57800;SDS011;43627;42.728;23.256;2022-08-11T13:44:16;2.75;;;2.38;;
57800;SDS011;43627;42.728;23.256;2022-08-11T13:46:50;6.15;;;2.67;;
57800;SDS011;43627;42.728;23.256;2022-08-11T13:49:20;3.35;;;2.47;;
57800;SDS011;43627;42.728;23.256;2022-08-11T13:51:47;3.38;;;2.40;;
57800;SDS011;43627;42.728;23.256;2022-08-11T13:54:17;5.90;;;2.13;;
57800;SDS011;43627;42.728;23.256;2022-08-11T13:56:47;2.95;;;2.60;;
57800;SDS011;43627;42.728;23.256;2022-08-11T13:59:18;4.60;;;2.35;;
57800;SDS011;43627;42.728;23.256;2022-08-11T14:02:00;3.08;;;2.60;;
57800;SDS011;43627;42.728;23.256;2022-08-11T14:05:00;4.05;;;2.97;;
57800;SDS011;43627;42.728;23.256;2022-08-11T14:08:20;7.13;;;2.90;;
57800;SDS011;43627;42.728;23.256;2022-08-11T14:10:28;5.35;;;2.83;;
57800;SDS011;43627;42.728;23.256;2022-08-11T14:12:59;5.40;;;2.92;;
57800;SDS011;43627;42.728;23.256;2022-08-11T14:15:47;3.08;;;2.78;;
57800;SDS011;43627;42.728;23.256;2022-08-11T14:18:18;4.53;;;3.00;;
57800;SDS011;43627;42.728;23.256;2022-08-11T14:20:49;4.70;;;3.20;;
57800;SDS011;43627;42.728;23.256;2022-08-11T14:23:38;3.20;;;2.90;;
57800;SDS011;43627;42.728;23.256;2022-08-11T14:26:10;4.20;;;2.97;;
57800;SDS011;43627;42.728;23.256;2022-08-11T14:31:46;6.45;;;3.22;;
57800;SDS011;43627;42.728;23.256;2022-08-11T14:34:16;6.95;;;3.50;;
57800;SDS011;43627;42.728;23.256;2022-08-11T14:36:48;5.25;;;3.28;;
57800;SDS011;43627;42.728;23.256;2022-08-11T14:39:18;3.40;;;2.53;;
57800;SDS011;43627;42.728;23.256;2022-08-11T14:41:58;3.63;;;3.25;;
57800;SDS011;43627;42.728;23.256;2022-08-11T14:44:45;7.70;;;3.45;;
57800;SDS011;43627;42.728;23.256;2022-08-11T14:47:42;3.72;;;3.33;;
57800;SDS011;43627;42.728;23.256;2022-08-11T14:50:12;4.18;;;3.60;;
57800;SDS011;43627;42.728;23.256;2022-08-11T14:52:47;3.45;;;3.15;;
57800;SDS011;43627;42.728;23.256;2022-08-11T14:55:16;6.90;;;3.40;;
57800;SDS011;43627;42.728;23.256;2022-08-11T14:58:04;7.57;;;3.22;;
57800;SDS011;43627;42.728;23.256;2022-08-11T15:00:35;3.60;;;3.22;;
57800;SDS011;43627;42.728;23.256;2022-08-11T15:03:04;4.68;;;3.42;;
57800;SDS011;43627;42.728;23.256;2022-08-11T15:05:49;3.17;;;2.90;;
57800;SDS011;43627;42.728;23.256;2022-08-11T15:08:24;4.35;;;3.00;;
57800;SDS011;43627;42.728;23.256;2022-08-11T15:11:12;5.13;;;3.33;;
57800;SDS011;43627;42.728;23.256;2022-08-11T15:13:59;4.78;;;3.30;;
57800;SDS011;43627;42.728;23.256;2022-08-11T15:16:27;3.70;;;2.72;;
57800;SDS011;43627;42.728;23.256;2022-08-11T15:19:14;3.47;;;3.00;;
57800;SDS011;43627;42.728;23.256;2022-08-11T15:21:41;5.35;;;3.13;;
57800;SDS011;43627;42.728;23.256;2022-08-11T15:24:27;4.45;;;3.15;;
57800;SDS011;43627;42.728;23.256;2022-08-11T15:26:56;5.82;;;3.03;;
57800;SDS011;43627;42.728;23.256;2022-08-11T15:29:44;4.47;;;2.95;;
57800;SDS011;43627;42.728;23.256;2022-08-11T15:32:31;4.65;;;3.10;;
57800;SDS011;43627;42.728;23.256;2022-08-11T15:35:18;3.85;;;3.30;;
57800;SDS011;43627;42.728;23.256;2022-08-11T15:38:04;10.18;;;3.08;;
57800;SDS011;43627;42.728;23.256;2022-08-11T15:40:34;4.13;;;3.35;;
57800;SDS011;43627;42.728;23.256;2022-08-11T15:43:36;5.57;;;3.78;;
57800;SDS011;43627;42.728;23.256;2022-08-11T15:46:30;3.83;;;3.08;;
57800;SDS011;43627;42.728;23.256;2022-08-11T15:49:02;3.38;;;2.78;;
57800;SDS011;43627;42.728;23.256;2022-08-11T15:51:35;3.30;;;3.00;;
57800;SDS011;43627;42.728;23.256;2022-08-11T15:54:07;4.93;;;3.13;;
57800;SDS011;43627;42.728;23.256;2022-08-11T15:56:38;5.90;;;3.65;;
57800;SDS011;43627;42.728;23.256;2022-08-11T15:59:07;4.13;;;3.20;;
57800;SDS011;43627;42.728;23.256;2022-08-11T16:02:09;5.28;;;2.83;;
57800;SDS011;43627;42.728;23.256;2022-08-11T16:04:58;7.75;;;2.83;;
57800;SDS011;43627;42.728;23.256;2022-08-11T16:07:30;4.73;;;2.83;;
57800;SDS011;43627;42.728;23.256;2022-08-11T16:10:12;8.23;;;3.17;;
57800;SDS011;43627;42.728;23.256;2022-08-11T16:15:51;5.53;;;3.75;;
57800;SDS011;43627;42.728;23.256;2022-08-11T16:18:42;5.85;;;3.65;;
57800;SDS011;43627;42.728;23.256;2022-08-11T16:21:34;5.22;;;2.67;;
57800;SDS011;43627;42.728;23.256;2022-08-11T16:24:06;3.53;;;2.40;;
57800;SDS011;43627;42.728;23.256;2022-08-11T16:26:56;10.52;;;2.80;;
57800;SDS011;43627;42.728;23.256;2022-08-11T16:29:39;6.32;;;2.85;;
57800;SDS011;43627;42.728;23.256;2022-08-11T16:32:10;3.65;;;2.92;;
57800;SDS011;43627;42.728;23.256;2022-08-11T16:34:44;5.85;;;2.53;;
57800;SDS011;43627;42.728;23.256;2022-08-11T16:37:35;4.45;;;2.60;;
57800;SDS011;43627;42.728;23.256;2022-08-11T16:40:22;3.67;;;2.60;;
57800;SDS011;43627;42.728;23.256;2022-08-11T16:42:50;4.10;;;2.65;;
57800;SDS011;43627;42.728;23.256;2022-08-11T16:45:38;7.07;;;3.05;;
57800;SDS011;43627;42.728;23.256;2022-08-11T16:48:27;5.03;;;3.13;;
57800;SDS011;43627;42.728;23.256;2022-08-11T16:51:06;5.93;;;3.35;;
57800;SDS011;43627;42.728;23.256;2022-08-11T16:53:33;3.10;;;2.80;;
57800;SDS011;43627;42.728;23.256;2022-08-11T16:56:22;3.53;;;2.80;;
57800;SDS011;43627;42.728;23.256;2022-08-11T16:58:54;3.30;;;3.00;;
57800;SDS011;43627;42.728;23.256;2022-08-11T17:01:50;6.72;;;2.80;;
57800;SDS011;43627;42.728;23.256;2022-08-11T17:07:25;4.93;;;3.33;;
57800;SDS011;43627;42.728;23.256;2022-08-11T17:10:56;4.32;;;2.95;;
57800;SDS011;43627;42.728;23.256;2022-08-11T17:13:43;4.38;;;2.80;;
57800;SDS011;43627;42.728;23.256;2022-08-11T17:16:15;3.28;;;2.97;;
57800;SDS011;43627;42.728;23.256;2022-08-11T17:18:57;4.57;;;3.05;;
57800;SDS011;43627;42.728;23.256;2022-08-11T17:26:56;5.95;;;3.28;;
57800;SDS011;43627;42.728;23.256;2022-08-11T17:31:53;3.88;;;2.85;;
57800;SDS011;43627;42.728;23.256;2022-08-11T17:34:41;4.68;;;2.78;;
57800;SDS011;43627;42.728;23.256;2022-08-11T17:37:28;4.25;;;3.33;;
57800;SDS011;43627;42.728;23.256;2022-08-11T17:39:58;5.45;;;3.15;;
57800;SDS011;43627;42.728;23.256;2022-08-11T17:42:28;5.18;;;4.30;;
57800;SDS011;43627;42.728;23.256;2022-08-11T17:45:18;5.70;;;3.63;;
57800;SDS011;43627;42.728;23.256;2022-08-11T17:48:05;3.90;;;2.72;;
57800;SDS011;43627;42.728;23.256;2022-08-11T17:50:59;3.72;;;3.10;;
57800;SDS011;43627;42.728;23.256;2022-08-11T17:53:37;7.63;;;3.78;;
57800;SDS011;43627;42.728;23.256;2022-08-11T17:56:46;4.40;;;2.80;;
57800;SDS011;43627;42.728;23.256;2022-08-11T17:59:45;13.20;;;3.10;;
57800;SDS011;43627;42.728;23.256;2022-08-11T18:05:17;3.47;;;2.50;;
57800;SDS011;43627;42.728;23.256;2022-08-11T18:07:47;5.88;;;4.18;;
57800;SDS011;43627;42.728;23.256;2022-08-11T18:10:35;4.32;;;3.00;;
57800;SDS011;43627;42.728;23.256;2022-08-11T18:13:23;6.63;;;3.05;;
57800;SDS011;43627;42.728;23.256;2022-08-11T18:16:10;6.95;;;3.55;;
57800;SDS011;43627;42.728;23.256;2022-08-11T18:18:56;3.83;;;2.70;;
57800;SDS011;43627;42.728;23.256;2022-08-11T18:21:42;3.22;;;2.92;;
57800;SDS011;43627;42.728;23.256;2022-08-11T18:24:45;6.68;;;3.05;;
57800;SDS011;43627;42.728;23.256;2022-08-11T18:27:33;3.67;;;3.13;;
57800;SDS011;43627;42.728;23.256;2022-08-11T18:30:20;5.03;;;2.90;;
57800;SDS011;43627;42.728;23.256;2022-08-11T18:33:07;3.65;;;3.13;;
57800;SDS011;43627;42.728;23.256;2022-08-11T18:36:16;5.85;;;2.80;;
57800;SDS011;43627;42.728;23.256;2022-08-11T18:39:07;8.55;;;3.53;;
57800;SDS011;43627;42.728;23.256;2022-08-11T18:41:57;5.82;;;3.22;;
57800;SDS011;43627;42.728;23.256;2022-08-11T18:44:54;5.35;;;3.15;;
57800;SDS011;43627;42.728;23.256;2022-08-11T18:47:44;10.35;;;6.30;;
57800;SDS011;43627;42.728;23.256;2022-08-11T18:50:37;5.38;;;3.42;;
57800;SDS011;43627;42.728;23.256;2022-08-11T18:53:46;10.77;;;4.28;;
57800;SDS011;43627;42.728;23.256;2022-08-11T18:56:35;10.25;;;3.30;;
57800;SDS011;43627;42.728;23.256;2022-08-11T18:59:23;6.88;;;3.63;;
57800;SDS011;43627;42.728;23.256;2022-08-11T19:02:11;6.63;;;3.60;;
57800;SDS011;43627;42.728;23.256;2022-08-11T19:05:15;4.95;;;2.78;;
57800;SDS011;43627;42.728;23.256;2022-08-11T19:08:22;8.45;;;4.53;;
57800;SDS011;43627;42.728;23.256;2022-08-11T19:11:12;5.85;;;4.03;;
57800;SDS011;43627;42.728;23.256;2022-08-11T19:13:59;3.40;;;3.03;;
57800;SDS011;43627;42.728;23.256;2022-08-11T19:16:47;4.68;;;3.25;;
57800;SDS011;43627;42.728;23.256;2022-08-11T19:19:35;3.88;;;2.90;;
57800;SDS011;43627;42.728;23.256;2022-08-11T19:22:23;7.80;;;3.15;;
57800;SDS011;43627;42.728;23.256;2022-08-11T19:25:10;4.13;;;2.75;;
57800;SDS011;43627;42.728;23.256;2022-08-11T19:27:57;3.38;;;2.47;;
57800;SDS011;43627;42.728;23.256;2022-08-11T19:30:44;6.00;;;3.47;;
57800;SDS011;43627;42.728;23.256;2022-08-11T19:33:30;5.45;;;3.22;;
57800;SDS011;43627;42.728;23.256;2022-08-11T19:36:35;4.47;;;3.30;;
57800;SDS011;43627;42.728;23.256;2022-08-11T19:39:22;4.03;;;2.67;;
57800;SDS011;43627;42.728;23.256;2022-08-11T19:42:10;6.28;;;3.25;;
57800;SDS011;43627;42.728;23.256;2022-08-11T19:44:57;3.40;;;2.80;;
57800;SDS011;43627;42.728;23.256;2022-08-11T19:47:44;3.30;;;2.90;;
57800;SDS011;43627;42.728;23.256;2022-08-11T19:50:51;4.32;;;3.20;;
57800;SDS011;43627;42.728;23.256;2022-08-11T19:53:38;4.07;;;3.20;;
57800;SDS011;43627;42.728;23.256;2022-08-11T19:56:25;4.57;;;2.78;;
57800;SDS011;43627;42.728;23.256;2022-08-11T19:59:11;6.82;;;3.50;;
57800;SDS011;43627;42.728;23.256;2022-08-11T20:01:57;2.97;;;2.60;;